Time;durP1;ratioP1;P1;durP2;ratioP2;P2;SDS_P1;SDS_P2;PMS_P1;PMS_P2;Temp;Humidity;BMP_temperature;BMP_pressure;BME280_temperature;BME280_humidity;BME280_pressure;Samples;Min_cycle;Max_cycle;Signal;HPM_P1;HPM_P2
2022/03/15 00:00:49;;;;;;;11.23;5.70;;;3.80;99.90;;;;;;5126089;28;20043;-74
2022/03/15 00:03:15;;;;;;;16.15;6.00;;;3.70;99.90;;;;;;5126174;28;20066;-74
2022/03/15 00:05:41;;;;;;;14.68;6.20;;;3.70;99.90;;;;;;5126473;28;20120;-74
2022/03/15 00:08:07;;;;;;;16.83;5.72;;;3.70;99.90;;;;;;5118119;28;20035;-76
2022/03/15 00:10:34;;;;;;;24.25;6.53;;;3.70;99.90;;;;;;5090608;28;20119;-73
2022/03/15 00:12:59;;;;;;;19.92;7.22;;;3.70;99.90;;;;;;5090259;28;20032;-74
2022/03/15 00:15:26;;;;;;;21.05;7.22;;;3.70;99.90;;;;;;5083777;28;20093;-79
2022/03/15 00:17:53;;;;;;;21.77;7.68;;;3.70;99.90;;;;;;5091353;28;20047;-80
2022/03/15 00:20:24;;;;;;;21.63;8.30;;;3.70;99.90;;;;;;5090238;28;20055;-79
2022/03/15 00:22:55;;;;;;;19.20;7.13;;;3.70;99.90;;;;;;5091189;28;20044;-76
2022/03/15 00:25:21;;;;;;;19.58;7.88;;;3.70;99.90;;;;;;5074130;28;20050;-76
2022/03/15 00:27:50;;;;;;;20.50;8.10;;;3.70;99.90;;;;;;5074260;28;20511;-80
2022/03/15 00:30:17;;;;;;;20.73;8.50;;;3.70;99.90;;;;;;5073393;28;20032;-80
2022/03/15 00:32:43;;;;;;;27.30;8.23;;;3.70;99.90;;;;;;5091106;28;20036;-79
2022/03/15 00:35:16;;;;;;;21.23;8.52;;;3.70;99.90;;;;;;5090532;28;20496;-79
2022/03/15 00:37:43;;;;;;;23.23;8.63;;;3.70;99.90;;;;;;5074083;28;20040;-77
2022/03/15 00:40:09;;;;;;;19.02;8.38;;;3.80;99.90;;;;;;5091245;28;20047;-81
2022/03/15 00:42:35;;;;;;;22.92;9.15;;;3.80;99.90;;;;;;5090666;28;20050;-79
2022/03/15 00:45:01;;;;;;;23.08;8.48;;;3.80;99.90;;;;;;5090133;28;20119;-78
2022/03/15 00:47:28;;;;;;;23.58;8.48;;;3.80;99.90;;;;;;5090469;28;20105;-78
2022/03/15 00:49:54;;;;;;;21.88;8.48;;;3.90;99.90;;;;;;5090613;28;20114;-80
2022/03/15 00:52:20;;;;;;;23.10;8.98;;;3.90;99.90;;;;;;5090902;28;20063;-78
2022/03/15 00:54:45;;;;;;;21.25;8.80;;;3.90;99.90;;;;;;5091127;28;20093;-78
2022/03/15 00:57:11;;;;;;;19.65;8.43;;;3.80;99.90;;;;;;5090344;28;20120;-77
2022/03/15 00:59:37;;;;;;;23.88;8.80;;;3.90;99.90;;;;;;5073775;28;20074;-79
2022/03/15 01:02:03;;;;;;;30.90;9.85;;;3.80;99.90;;;;;;5089883;28;20132;-77
2022/03/15 01:04:29;;;;;;;25.40;9.88;;;3.90;99.90;;;;;;5073512;28;20052;-78
2022/03/15 01:06:55;;;;;;;28.10;10.18;;;3.90;99.90;;;;;;5090374;28;20055;-76
2022/03/15 01:09:21;;;;;;;29.15;9.60;;;3.80;99.90;;;;;;5092017;28;20417;-80
2022/03/15 01:11:47;;;;;;;26.27;9.75;;;3.90;99.90;;;;;;5090617;28;20058;-77
2022/03/15 01:14:12;;;;;;;28.45;10.23;;;3.80;99.90;;;;;;5090375;28;20043;-77
2022/03/15 01:16:38;;;;;;;26.45;10.25;;;3.80;99.90;;;;;;5089483;28;20035;-79
2022/03/15 01:19:07;;;;;;;23.05;9.73;;;3.80;99.90;;;;;;5073427;28;20063;-77
2022/03/15 01:21:35;;;;;;;29.90;11.10;;;3.80;99.90;;;;;;5090124;28;20052;-77
2022/03/15 01:24:01;;;;;;;29.73;10.50;;;3.80;99.90;;;;;;5090382;28;20136;-79
2022/03/15 01:26:26;;;;;;;29.08;11.52;;;3.70;99.90;;;;;;5090162;28;20495;-76
2022/03/15 01:28:52;;;;;;;22.83;11.23;;;3.80;99.90;;;;;;5089897;28;20035;-76
2022/03/15 01:31:18;;;;;;;27.92;11.48;;;3.80;99.90;;;;;;5089978;28;20044;-77
2022/03/15 01:33:43;;;;;;;27.15;11.07;;;3.80;99.90;;;;;;5077374;28;20071;-79
2022/03/15 01:36:09;;;;;;;33.25;10.85;;;3.80;99.90;;;;;;5077363;28;20097;-80
2022/03/15 01:38:35;;;;;;;27.10;11.35;;;3.80;99.90;;;;;;5078003;28;20040;-79
2022/03/15 01:41:01;;;;;;;26.60;9.70;;;3.70;99.90;;;;;;5077516;28;20036;-78
2022/03/15 01:43:27;;;;;;;26.35;11.10;;;3.70;99.90;;;;;;5094225;28;20109;-77
2022/03/15 01:45:53;;;;;;;28.10;10.98;;;3.80;99.90;;;;;;5093308;28;20040;-80
2022/03/15 01:48:20;;;;;;;37.28;10.52;;;3.70;99.90;;;;;;5094066;28;20115;-78
2022/03/15 01:50:46;;;;;;;25.98;10.98;;;3.70;99.90;;;;;;5076990;28;20036;-80
2022/03/15 01:53:14;;;;;;;31.30;11.95;;;3.70;99.90;;;;;;5077106;28;20040;-77
2022/03/15 01:55:40;;;;;;;22.83;10.68;;;3.80;99.90;;;;;;5095532;28;20085;-74
2022/03/15 01:58:06;;;;;;;28.35;11.63;;;3.70;99.90;;;;;;5095234;28;20428;-80
2022/03/15 02:00:32;;;;;;;32.35;12.50;;;3.70;99.90;;;;;;5076332;28;20071;-77
2022/03/15 02:02:58;;;;;;;31.15;11.73;;;3.90;99.90;;;;;;5093767;28;20047;-79
2022/03/15 02:05:23;;;;;;;24.17;11.05;;;3.70;99.90;;;;;;5093530;28;20044;-75
2022/03/15 02:07:49;;;;;;;27.38;12.30;;;3.70;99.90;;;;;;5100336;28;20486;-79
2022/03/15 02:10:15;;;;;;;27.23;12.00;;;3.70;99.90;;;;;;5097056;28;20036;-79
2022/03/15 02:12:40;;;;;;;26.50;12.43;;;3.60;99.90;;;;;;5114206;28;20074;-81
2022/03/15 02:15:07;;;;;;;26.33;12.15;;;3.70;99.90;;;;;;5113470;28;20171;-77
2022/03/15 02:17:33;;;;;;;32.17;12.98;;;3.70;99.90;;;;;;5114113;28;20050;-77
2022/03/15 02:20:04;;;;;;;28.05;12.80;;;3.70;99.90;;;;;;5096966;28;20036;-77
2022/03/15 02:22:30;;;;;;;28.35;13.05;;;3.80;99.90;;;;;;5114172;28;20134;-80
2022/03/15 02:24:55;;;;;;;28.92;13.30;;;3.80;99.90;;;;;;5113825;28;20123;-80
2022/03/15 02:27:23;;;;;;;37.45;14.52;;;3.80;99.90;;;;;;5114000;28;20071;-77
2022/03/15 02:29:49;;;;;;;32.47;14.07;;;3.80;99.90;;;;;;5113807;28;20047;-78
2022/03/15 02:32:15;;;;;;;35.63;14.45;;;3.90;99.90;;;;;;5112875;28;20074;-78
2022/03/15 02:34:41;;;;;;;37.40;14.75;;;3.90;99.90;;;;;;5114023;28;20075;-78
2022/03/15 02:37:06;;;;;;;35.70;14.43;;;4.00;99.90;;;;;;5113530;28;20050;-78
2022/03/15 02:39:32;;;;;;;37.50;15.00;;;4.10;99.90;;;;;;5113477;28;20036;-76
2022/03/15 02:41:58;;;;;;;35.08;15.23;;;4.10;99.90;;;;;;5096524;28;20043;-78
2022/03/15 02:44:23;;;;;;;28.63;16.27;;;4.10;99.90;;;;;;5095411;28;20391;-78
2022/03/15 02:46:50;;;;;;;34.47;17.00;;;4.10;99.90;;;;;;5095376;28;20117;-76
2022/03/15 02:49:16;;;;;;;32.05;16.60;;;4.20;99.90;;;;;;5096523;28;20057;-76
2022/03/15 02:51:42;;;;;;;35.83;17.13;;;4.20;99.90;;;;;;5113363;28;20043;-78
2022/03/15 02:54:11;;;;;;;41.97;18.92;;;4.20;99.90;;;;;;5096543;28;20040;-78
2022/03/15 02:56:42;;;;;;;34.60;17.83;;;4.30;99.90;;;;;;5112214;28;20114;-77
2022/03/15 02:59:14;;;;;;;35.85;17.60;;;4.30;99.90;;;;;;5094105;28;20040;-80
2022/03/15 03:01:45;;;;;;;38.05;17.88;;;4.30;99.90;;;;;;5075199;28;20036;-81
2022/03/15 03:04:11;;;;;;;40.55;18.35;;;4.40;99.90;;;;;;5075557;28;20058;-75
2022/03/15 03:06:38;;;;;;;41.55;19.15;;;4.50;99.90;;;;;;5075978;28;20130;-76
2022/03/15 03:09:04;;;;;;;37.30;19.35;;;4.60;99.90;;;;;;5109525;28;20039;-79
2022/03/15 03:11:30;;;;;;;42.20;19.67;;;4.60;99.90;;;;;;5095839;28;20035;-79
2022/03/15 03:13:57;;;;;;;37.97;18.27;;;4.60;99.90;;;;;;5112843;28;20081;-79
2022/03/15 03:16:24;;;;;;;34.30;18.92;;;4.70;99.90;;;;;;5112059;28;20028;-80
2022/03/15 03:18:52;;;;;;;40.80;19.10;;;4.70;99.90;;;;;;5095755;28;20036;-78
2022/03/15 03:21:18;;;;;;;39.35;18.73;;;4.60;99.90;;;;;;5095606;28;20213;-79
2022/03/15 03:23:43;;;;;;;37.95;18.10;;;4.70;99.90;;;;;;5113085;28;20230;-79
2022/03/15 03:26:09;;;;;;;43.17;19.48;;;4.60;99.90;;;;;;5095716;28;20039;-77
2022/03/15 03:28:38;;;;;;;38.55;19.30;;;4.70;99.90;;;;;;5095758;28;20453;-80
2022/03/15 03:31:06;;;;;;;37.17;18.70;;;4.80;99.90;;;;;;5111934;28;20097;-80
2022/03/15 03:33:32;;;;;;;31.98;18.20;;;4.80;99.90;;;;;;5114259;27;20103;-76
2022/03/15 03:35:58;;;;;;;32.72;19.27;;;4.80;99.90;;;;;;5112304;28;20487;-80
2022/03/15 03:38:24;;;;;;;43.45;19.05;;;4.90;99.90;;;;;;5112470;28;20092;-77
2022/03/15 03:40:50;;;;;;;37.55;18.15;;;4.90;99.90;;;;;;5108957;28;20036;-80
2022/03/15 03:43:16;;;;;;;40.65;18.15;;;4.80;99.90;;;;;;5092147;28;20055;-79
2022/03/15 03:45:42;;;;;;;37.45;17.85;;;4.90;99.90;;;;;;5074780;28;20040;-78
2022/03/15 03:48:08;;;;;;;37.70;18.33;;;4.90;99.90;;;;;;5093810;28;20482;-78
2022/03/15 03:50:35;;;;;;;40.63;17.98;;;5.00;99.90;;;;;;5091938;28;20123;-77
2022/03/15 03:53:02;;;;;;;38.15;17.48;;;5.00;99.90;;;;;;5104925;28;20062;-75
2022/03/15 03:55:27;;;;;;;35.20;16.88;;;5.00;99.90;;;;;;5091679;28;20100;-75
2022/03/15 03:57:54;;;;;;;36.70;18.75;;;5.00;99.90;;;;;;5108660;28;20036;-76
2022/03/15 04:00:20;;;;;;;35.60;16.83;;;5.10;99.90;;;;;;5107567;28;20048;-74
2022/03/15 04:02:45;;;;;;;35.00;16.48;;;5.00;99.90;;;;;;5108965;28;20035;-74
2022/03/15 04:05:12;;;;;;;37.08;17.20;;;5.00;99.90;;;;;;5108780;28;20072;-75
2022/03/15 04:07:40;;;;;;;39.22;16.17;;;5.00;99.90;;;;;;5107112;28;20036;-76
2022/03/15 04:10:07;;;;;;;39.17;17.10;;;5.10;99.90;;;;;;5093412;28;20447;-77
2022/03/15 04:12:34;;;;;;;38.38;15.82;;;5.20;99.90;;;;;;5074727;28;20556;-79
2022/03/15 04:15:00;;;;;;;35.10;16.08;;;5.20;99.90;;;;;;5074490;28;20043;-78
2022/03/15 04:17:26;;;;;;;44.38;17.30;;;5.20;99.90;;;;;;5091032;28;20067;-79
2022/03/15 04:19:53;;;;;;;33.55;15.55;;;5.60;99.90;;;;;;5074425;28;20461;-78
2022/03/15 04:22:21;;;;;;;34.90;15.48;;;5.30;99.90;;;;;;5092732;28;20036;-77
2022/03/15 04:24:47;;;;;;;37.67;15.85;;;5.30;99.90;;;;;;5092567;28;20063;-78
2022/03/15 04:27:13;;;;;;;37.83;15.82;;;5.40;99.90;;;;;;5074023;28;20125;-78
2022/03/15 04:29:42;;;;;;;36.50;14.82;;;5.40;99.90;;;;;;5091576;28;20040;-77
2022/03/15 04:32:08;;;;;;;33.58;14.63;;;5.30;99.90;;;;;;5090292;28;20086;-77
2022/03/15 04:34:34;;;;;;;37.28;15.50;;;5.40;99.90;;;;;;5091042;28;20348;-81
2022/03/15 04:37:00;;;;;;;34.20;15.88;;;5.40;99.90;;;;;;5073946;28;20036;-76
2022/03/15 04:39:25;;;;;;;37.83;15.82;;;5.40;99.90;;;;;;5091709;28;20036;-78
2022/03/15 04:41:51;;;;;;;32.35;15.25;;;5.50;99.90;;;;;;5090829;28;20444;-76
2022/03/15 04:44:17;;;;;;;37.33;15.95;;;5.50;99.90;;;;;;5074028;28;20091;-80
2022/03/15 04:46:44;;;;;;;40.75;16.30;;;5.50;99.90;;;;;;5092022;28;20072;-78
2022/03/15 04:49:10;;;;;;;36.55;15.43;;;5.50;99.90;;;;;;5091387;28;20450;-79
2022/03/15 04:51:36;;;;;;;34.28;15.02;;;5.60;99.90;;;;;;5090927;28;20073;-80
2022/03/15 04:54:02;;;;;;;28.50;15.20;;;5.80;99.90;;;;;;5074392;28;20047;-77
2022/03/15 04:56:27;;;;;;;33.40;15.43;;;5.60;99.90;;;;;;5073983;28;20050;-75
2022/03/15 04:58:53;;;;;;;28.10;14.90;;;5.60;99.90;;;;;;5090896;28;20187;-81
2022/03/15 05:01:19;;;;;;;39.17;15.80;;;5.50;99.90;;;;;;5073537;28;20054;-79
2022/03/15 05:03:45;;;;;;;29.40;14.38;;;5.50;99.90;;;;;;5090615;28;20499;-80
2022/03/15 05:06:10;;;;;;;33.30;14.25;;;5.50;99.90;;;;;;5090502;28;20048;-79
2022/03/15 05:08:37;;;;;;;27.13;14.18;;;5.50;99.90;;;;;;5090323;28;20043;-75
2022/03/15 05:11:08;;;;;;;28.30;14.27;;;6.00;99.90;;;;;;5090574;28;20040;-80
2022/03/15 05:13:44;;;;;;;33.13;15.27;;;5.60;99.90;;;;;;5091049;28;20368;-77
2022/03/15 05:16:12;;;;;;;33.97;14.40;;;5.60;99.90;;;;;;5073036;28;20033;-80
2022/03/15 05:18:40;;;;;;;34.75;14.80;;;5.60;99.90;;;;;;5092064;28;20042;-78
2022/03/15 05:21:07;;;;;;;39.90;15.55;;;5.50;99.90;;;;;;5090838;28;20040;-79
2022/03/15 05:23:34;;;;;;;40.78;15.68;;;5.50;99.90;;;;;;5090645;28;20032;-79
2022/03/15 05:26:00;;;;;;;33.47;15.20;;;5.60;99.90;;;;;;5073275;28;20488;-76
2022/03/15 05:28:26;;;;;;;37.13;15.95;;;5.50;99.90;;;;;;5073361;28;20059;-79
2022/03/15 05:30:53;;;;;;;37.40;15.77;;;5.60;99.90;;;;;;5090125;28;20123;-81
2022/03/15 05:33:18;;;;;;;38.15;16.60;;;5.60;99.90;;;;;;5073956;28;20032;-77
2022/03/15 05:35:44;;;;;;;38.22;17.00;;;5.50;99.90;;;;;;5073869;28;20498;-79
2022/03/15 05:38:10;;;;;;;46.97;18.27;;;5.60;99.90;;;;;;5090950;28;20476;-76
2022/03/15 05:40:36;;;;;;;37.50;17.77;;;5.60;99.90;;;;;;5074156;28;20131;-80
2022/03/15 05:43:02;;;;;;;40.63;19.27;;;5.60;99.90;;;;;;5073814;28;20051;-79
2022/03/15 05:45:28;;;;;;;44.90;18.52;;;5.60;99.90;;;;;;5089358;28;20718;-80
2022/03/15 05:47:55;;;;;;;48.58;19.23;;;5.70;99.90;;;;;;5090655;28;20061;-77
2022/03/15 05:50:21;;;;;;;39.17;18.52;;;5.70;99.90;;;;;;5106960;28;20044;-74
2022/03/15 05:52:47;;;;;;;45.35;20.30;;;5.80;99.90;;;;;;5106691;28;20078;-77
2022/03/15 05:55:13;;;;;;;43.08;20.00;;;5.70;99.90;;;;;;5088881;28;20052;-76
2022/03/15 05:57:39;;;;;;;45.25;20.73;;;5.80;99.90;;;;;;5090083;28;20044;-77
2022/03/15 06:00:06;;;;;;;43.42;21.33;;;5.70;99.90;;;;;;5107680;28;20055;-75
2022/03/15 06:02:32;;;;;;;50.35;21.55;;;5.70;99.90;;;;;;5107243;28;20048;-75
2022/03/15 06:04:59;;;;;;;44.30;21.65;;;5.70;99.90;;;;;;5104920;28;20048;-78
2022/03/15 06:07:27;;;;;;;45.67;21.55;;;5.70;99.90;;;;;;5089931;28;20036;-80
2022/03/15 06:09:53;;;;;;;47.15;22.10;;;5.70;99.90;;;;;;5090027;28;20036;-78
2022/03/15 06:12:20;;;;;;;45.95;21.23;;;5.70;99.90;;;;;;5073097;28;20042;-78
2022/03/15 06:14:46;;;;;;;45.53;22.40;;;5.70;99.90;;;;;;5073608;28;20089;-79
2022/03/15 06:17:12;;;;;;;47.80;22.52;;;5.70;99.90;;;;;;5072464;28;20044;-79
2022/03/15 06:19:38;;;;;;;42.92;21.88;;;5.70;99.90;;;;;;5093641;28;20044;-77
2022/03/15 06:22:04;;;;;;;50.08;22.05;;;5.70;99.90;;;;;;5094199;28;20043;-81
2022/03/15 06:24:30;;;;;;;50.97;22.17;;;5.90;99.90;;;;;;5093870;28;20036;-78
2022/03/15 06:26:57;;;;;;;49.95;21.55;;;5.80;99.90;;;;;;5094490;28;20040;-79
2022/03/15 06:29:22;;;;;;;47.65;21.10;;;5.80;99.90;;;;;;5095123;28;20501;-80
2022/03/15 06:31:48;;;;;;;45.72;21.30;;;5.80;99.90;;;;;;5093898;28;20040;-77
2022/03/15 06:34:14;;;;;;;47.35;21.42;;;5.80;99.90;;;;;;5077997;28;20036;-78
2022/03/15 06:36:41;;;;;;;41.95;20.98;;;5.90;99.90;;;;;;5094470;28;20067;-78
2022/03/15 06:39:07;;;;;;;46.95;22.45;;;6.00;99.90;;;;;;5094611;28;20104;-81
2022/03/15 06:41:37;;;;;;;43.72;21.40;;;6.00;99.90;;;;;;5093154;28;20044;-76
2022/03/15 06:44:03;;;;;;;50.65;22.52;;;6.00;99.90;;;;;;5093299;28;20109;-82
2022/03/15 06:46:30;;;;;;;51.08;21.92;;;6.10;99.90;;;;;;5092469;28;20097;-80
2022/03/15 06:48:55;;;;;;;47.58;23.63;;;6.00;99.90;;;;;;5093341;28;20048;-79
2022/03/15 06:51:21;;;;;;;46.40;22.63;;;6.10;99.90;;;;;;5092918;28;20127;-79
2022/03/15 06:53:47;;;;;;;51.95;24.33;;;6.10;99.90;;;;;;5093748;28;20101;-80
2022/03/15 06:56:12;;;;;;;47.35;22.85;;;6.10;99.90;;;;;;5093596;28;20046;-78
2022/03/15 06:58:38;;;;;;;45.75;23.95;;;6.20;99.90;;;;;;5076564;28;20150;-79
2022/03/15 07:01:04;;;;;;;47.20;23.20;;;6.20;99.90;;;;;;5076458;28;20372;-81
2022/03/15 07:03:30;;;;;;;48.38;23.75;;;6.30;99.90;;;;;;5077307;28;20081;-77
2022/03/15 07:05:55;;;;;;;41.33;22.15;;;6.20;99.90;;;;;;5077466;28;20051;-79
2022/03/15 07:08:21;;;;;;;45.70;22.60;;;6.20;99.90;;;;;;5093433;28;20080;-81
2022/03/15 07:10:47;;;;;;;44.38;23.42;;;6.30;99.90;;;;;;5076149;28;20090;-76
2022/03/15 07:13:12;;;;;;;57.92;24.58;;;6.30;99.90;;;;;;5093078;28;20047;-81
2022/03/15 07:15:38;;;;;;;48.95;23.30;;;6.40;99.90;;;;;;5092547;28;20099;-80
2022/03/15 07:18:04;;;;;;;46.45;24.17;;;6.40;99.90;;;;;;5093482;28;20056;-80
2022/03/15 07:20:29;;;;;;;45.67;23.30;;;6.40;99.90;;;;;;5094072;28;20178;-80
2022/03/15 07:22:55;;;;;;;45.58;23.02;;;6.50;99.90;;;;;;5093545;28;20050;-78
2022/03/15 07:25:21;;;;;;;46.42;23.45;;;6.50;99.90;;;;;;5093514;28;20383;-80
2022/03/15 07:27:48;;;;;;;46.35;24.90;;;6.50;99.90;;;;;;5076904;28;20049;-80
2022/03/15 07:30:14;;;;;;;46.20;23.83;;;6.50;99.90;;;;;;5091153;28;20135;-78
2022/03/15 07:32:40;;;;;;;49.55;25.10;;;6.50;99.90;;;;;;5092629;28;20127;-80
2022/03/15 07:35:06;;;;;;;56.55;24.98;;;6.50;99.90;;;;;;5092100;28;20051;-79
2022/03/15 07:37:31;;;;;;;48.15;25.33;;;6.60;99.90;;;;;;5092563;28;20066;-82
2022/03/15 07:39:58;;;;;;;53.38;25.58;;;6.70;99.90;;;;;;5075665;28;20047;-81
2022/03/15 07:42:24;;;;;;;55.50;26.08;;;6.70;99.90;;;;;;5092355;28;20040;-80
2022/03/15 07:44:49;;;;;;;50.08;25.63;;;6.70;99.90;;;;;;5075120;28;20497;-81
2022/03/15 07:47:15;;;;;;;52.88;26.38;;;6.80;99.90;;;;;;5074319;28;20458;-80
2022/03/15 07:49:41;;;;;;;48.75;24.92;;;6.70;99.90;;;;;;5075279;28;20040;-78
2022/03/15 07:52:08;;;;;;;51.72;26.98;;;6.80;99.90;;;;;;5080651;28;20040;-80
2022/03/15 07:54:34;;;;;;;56.38;25.38;;;6.80;99.90;;;;;;5098152;28;20052;-78
2022/03/15 07:57:01;;;;;;;59.88;26.65;;;6.90;99.90;;;;;;5091854;28;20131;-80
2022/03/15 07:59:27;;;;;;;59.00;26.52;;;6.90;99.90;;;;;;5091751;28;20044;-78
2022/03/15 08:01:53;;;;;;;57.97;25.80;;;6.90;99.90;;;;;;5090745;28;20040;-79
2022/03/15 08:04:19;;;;;;;55.38;27.40;;;7.00;99.90;;;;;;5091143;28;20052;-78
2022/03/15 08:06:45;;;;;;;52.78;25.75;;;7.10;99.90;;;;;;5091340;28;20187;-79
2022/03/15 08:09:11;;;;;;;47.75;26.20;;;7.10;99.90;;;;;;5074772;28;20032;-79
2022/03/15 08:11:36;;;;;;;53.90;26.67;;;7.10;99.90;;;;;;5091642;28;20044;-80
2022/03/15 08:14:02;;;;;;;46.03;24.80;;;7.10;99.90;;;;;;5091676;28;20036;-80
2022/03/15 08:16:28;;;;;;;54.92;27.20;;;7.20;99.90;;;;;;5090802;28;20040;-78
2022/03/15 08:18:54;;;;;;;51.30;27.55;;;7.30;99.90;;;;;;5091596;28;20059;-78
2022/03/15 08:21:22;;;;;;;55.42;27.10;;;7.40;99.90;;;;;;5091096;28;20139;-78
2022/03/15 08:23:48;;;;;;;48.60;25.98;;;7.30;99.90;;;;;;5091014;28;20044;-81
2022/03/15 08:26:15;;;;;;;44.15;25.02;;;7.40;99.90;;;;;;5074078;28;20036;-82
2022/03/15 08:28:41;;;;;;;47.58;26.08;;;7.50;99.90;;;;;;5076848;28;20363;-79
2022/03/15 08:31:07;;;;;;;46.28;25.52;;;7.50;99.90;;;;;;5110745;28;20125;-78
2022/03/15 08:33:33;;;;;;;50.65;25.17;;;7.40;99.90;;;;;;5111378;28;20494;-77
2022/03/15 08:35:59;;;;;;;58.08;26.25;;;7.50;99.90;;;;;;5111168;28;20027;-78
2022/03/15 08:38:26;;;;;;;47.95;26.05;;;7.60;99.90;;;;;;5111358;28;20047;-80
2022/03/15 08:40:52;;;;;;;49.35;25.35;;;7.50;99.90;;;;;;5093097;28;20450;-80
2022/03/15 08:43:18;;;;;;;45.55;24.65;;;7.70;99.90;;;;;;5111056;28;20455;-81
2022/03/15 08:45:44;;;;;;;45.83;24.63;;;7.70;99.90;;;;;;5109693;28;20072;-78
2022/03/15 08:48:10;;;;;;;42.55;24.67;;;7.80;99.90;;;;;;5111152;28;20058;-80
2022/03/15 08:50:36;;;;;;;45.08;23.73;;;7.70;99.90;;;;;;5111011;28;20143;-77
2022/03/15 08:53:02;;;;;;;43.70;23.75;;;7.90;99.90;;;;;;5112657;28;20188;-77
2022/03/15 08:55:28;;;;;;;46.80;25.40;;;7.90;99.90;;;;;;5111178;28;20423;-78
2022/03/15 08:57:55;;;;;;;45.00;23.13;;;7.90;99.90;;;;;;5081371;28;20071;-79
2022/03/15 09:00:21;;;;;;;40.13;23.63;;;8.00;99.90;;;;;;5072688;28;20135;-80
2022/03/15 09:02:46;;;;;;;42.90;24.75;;;8.10;99.90;;;;;;5090690;28;20082;-77
2022/03/15 09:05:12;;;;;;;37.55;22.95;;;8.10;99.90;;;;;;5090321;28;20051;-78
2022/03/15 09:07:39;;;;;;;42.15;23.95;;;8.20;99.90;;;;;;5090415;28;20047;-81
2022/03/15 09:10:05;;;;;;;38.22;23.30;;;8.30;99.90;;;;;;5090378;28;20050;-79
2022/03/15 09:12:31;;;;;;;42.53;23.40;;;8.30;99.90;;;;;;5090890;28;20430;-81
2022/03/15 09:14:57;;;;;;;38.85;22.42;;;8.40;99.90;;;;;;5091315;28;20047;-79
2022/03/15 09:17:23;;;;;;;37.67;24.25;;;8.40;99.90;;;;;;5090034;28;20070;-80
2022/03/15 09:19:51;;;;;;;48.45;23.83;;;8.50;99.90;;;;;;5092101;28;20043;-78
2022/03/15 09:22:17;;;;;;;39.55;23.77;;;8.60;99.90;;;;;;5090321;28;20101;-82
2022/03/15 09:24:43;;;;;;;34.30;22.10;;;8.60;99.90;;;;;;5073743;28;20475;-80
2022/03/15 09:27:10;;;;;;;39.25;23.88;;;8.60;99.90;;;;;;5073347;28;20067;-79
2022/03/15 09:29:36;;;;;;;40.70;24.73;;;8.70;99.90;;;;;;5090243;28;20483;-77
2022/03/15 09:32:04;;;;;;;37.50;23.38;;;8.70;99.90;;;;;;5089476;28;20044;-79
2022/03/15 09:34:30;;;;;;;41.17;23.17;;;8.90;99.90;;;;;;5073553;28;20055;-80
2022/03/15 09:37:02;;;;;;;37.70;23.10;;;8.90;99.90;;;;;;5090249;28;20044;-82
2022/03/15 09:39:28;;;;;;;38.95;23.77;;;9.00;99.90;;;;;;5090974;28;20380;-79
2022/03/15 09:41:56;;;;;;;37.05;22.45;;;9.00;99.90;;;;;;5073537;28;20130;-79
2022/03/15 09:44:26;;;;;;;38.22;23.70;;;9.00;99.90;;;;;;5089979;28;20052;-79
2022/03/15 09:46:55;;;;;;;38.88;23.85;;;9.10;99.90;;;;;;5072315;28;20052;-82
2022/03/15 09:49:22;;;;;;;33.80;23.05;;;9.30;99.90;;;;;;5073534;28;20547;-78
2022/03/15 09:51:48;;;;;;;39.60;22.90;;;9.20;99.90;;;;;;5089920;28;20044;-80
2022/03/15 09:54:15;;;;;;;42.00;22.33;;;9.30;99.90;;;;;;5093827;28;20511;-79
2022/03/15 09:56:41;;;;;;;35.35;22.48;;;9.50;99.90;;;;;;5096464;28;20044;-80
2022/03/15 09:59:10;;;;;;;31.77;21.42;;;9.60;99.90;;;;;;5114359;28;20149;-78
2022/03/15 10:01:39;;;;;;;35.55;21.52;;;9.60;99.90;;;;;;5113773;28;20081;-79
2022/03/15 10:04:05;;;;;;;36.55;22.75;;;9.80;99.90;;;;;;5113922;28;20104;-82
2022/03/15 10:06:30;;;;;;;38.70;22.63;;;9.90;99.90;;;;;;5114065;28;20040;-80
2022/03/15 10:08:56;;;;;;;35.20;21.63;;;10.00;99.90;;;;;;5114414;28;20096;-79
2022/03/15 10:11:23;;;;;;;33.10;22.00;;;10.10;99.90;;;;;;5114126;28;20040;-81
2022/03/15 10:13:50;;;;;;;36.40;22.88;;;10.10;99.90;;;;;;5114134;28;20057;-81
2022/03/15 10:16:16;;;;;;;38.28;22.45;;;10.10;99.90;;;;;;5113577;28;20028;-79
2022/03/15 10:18:55;;;;;;;31.10;21.85;;;10.30;99.90;;;;;;5114315;28;20444;-79
2022/03/15 10:21:25;;;;;;;35.72;22.33;;;10.20;99.90;;;;;;5114428;28;20475;-81
2022/03/15 10:23:55;;;;;;;31.55;22.63;;;10.20;99.90;;;;;;5097312;28;20446;-80
2022/03/15 10:26:29;;;;;;;33.00;22.70;;;10.20;99.90;;;;;;5113973;28;20102;-78
2022/03/15 10:28:56;;;;;;;33.42;21.92;;;10.30;99.90;;;;;;5093347;28;20078;-78
2022/03/15 10:31:24;;;;;;;35.05;21.77;;;10.40;99.90;;;;;;5076090;28;20032;-79
2022/03/15 10:33:54;;;;;;;34.95;21.25;;;10.40;99.90;;;;;;5093321;28;20055;-77
2022/03/15 10:36:21;;;;;;;28.75;19.00;;;10.50;99.90;;;;;;5093343;28;20051;-78
2022/03/15 10:38:48;;;;;;;30.27;19.85;;;10.40;99.90;;;;;;5094037;28;20051;-78
2022/03/15 10:41:16;;;;;;;29.92;19.48;;;10.40;99.90;;;;;;5113597;28;20051;-80
2022/03/15 10:43:42;;;;;;;30.40;19.08;;;10.30;99.90;;;;;;5113687;28;20107;-78
2022/03/15 10:46:10;;;;;;;36.00;20.95;;;10.40;99.90;;;;;;5112862;28;20448;-79
2022/03/15 10:48:37;;;;;;;40.67;21.27;;;10.40;99.90;;;;;;5113415;28;20122;-82
2022/03/15 10:51:12;;;;;;;37.53;21.52;;;10.40;99.90;;;;;;5113652;28;20046;-81
2022/03/15 10:53:47;;;;;;;32.28;19.95;;;10.50;99.90;;;;;;5112833;28;20055;-79
2022/03/15 10:56:14;;;;;;;29.67;19.75;;;10.40;99.90;;;;;;5113653;28;20036;-83
2022/03/15 10:58:53;;;;;;;37.35;20.38;;;10.30;99.90;;;;;;5096665;28;20036;-82
2022/03/15 11:01:22;;;;;;;31.02;19.77;;;10.20;99.90;;;;;;5112397;28;20399;-78
2022/03/15 11:04:14;;;;;;;36.20;19.98;;;10.20;99.90;;;;;;5095282;28;20144;-80
2022/03/15 11:06:44;;;;;;;35.70;19.83;;;10.20;99.90;;;;;;5110991;28;20444;-77
2022/03/15 11:09:23;;;;;;;35.33;19.67;;;10.10;99.90;;;;;;5118123;28;20048;-79
2022/03/15 11:11:53;;;;;;;31.25;20.13;;;10.10;99.90;;;;;;5120709;28;20253;-80
2022/03/15 11:14:30;;;;;;;30.65;19.27;;;10.00;99.90;;;;;;5098783;28;20059;-77
2022/03/15 11:16:57;;;;;;;29.85;19.67;;;10.20;99.90;;;;;;5112580;28;20374;-81
2022/03/15 11:19:27;;;;;;;35.75;21.00;;;10.10;99.90;;;;;;5079936;28;20506;-79
2022/03/15 11:21:56;;;;;;;34.03;20.55;;;10.10;99.90;;;;;;5092408;28;20151;-78
2022/03/15 11:24:25;;;;;;;35.00;20.17;;;10.10;99.90;;;;;;5092676;28;20077;-80
2022/03/15 11:26:51;;;;;;;35.35;21.45;;;10.00;99.90;;;;;;5092726;28;20036;-80
2022/03/15 11:29:22;;;;;;;36.72;21.35;;;10.10;99.90;;;;;;5059101;28;20048;-81
2022/03/15 11:31:48;;;;;;;38.17;21.17;;;10.00;99.90;;;;;;5075009;28;20126;-81
2022/03/15 11:34:18;;;;;;;42.58;21.50;;;10.10;99.90;;;;;;5075687;28;20545;-80
2022/03/15 11:36:45;;;;;;;33.45;20.67;;;10.00;99.90;;;;;;5092121;28;20044;-81
2022/03/15 11:39:11;;;;;;;32.67;19.95;;;10.20;99.90;;;;;;5096047;28;20040;-80
2022/03/15 11:41:37;;;;;;;30.92;18.42;;;10.20;99.90;;;;;;5112563;28;20039;-80
2022/03/15 11:44:47;;;;;;;27.73;17.88;;;10.10;99.90;;;;;;5096455;28;20123;-79
2022/03/15 11:47:26;;;;;;;28.60;17.83;;;10.00;99.90;;;;;;4998970;28;20077;-82
2022/03/15 11:50:14;;;;;;;27.88;17.35;;;9.90;99.90;;;;;;5016576;28;20048;-82
2022/03/15 11:53:09;;;;;;;30.83;17.30;;;9.90;99.90;;;;;;5016708;28;20061;-80
2022/03/15 11:56:00;;;;;;;26.83;14.90;;;9.80;99.90;;;;;;5015370;28;20052;-82
2022/03/15 11:58:28;;;;;;;28.17;14.93;;;9.80;99.90;;;;;;5020296;28;20057;-80
2022/03/15 12:00:54;;;;;;;32.13;16.92;;;9.80;99.90;;;;;;5013085;28;20056;-81
2022/03/15 12:03:23;;;;;;;32.88;17.75;;;9.70;99.90;;;;;;4998145;28;20049;-80
2022/03/15 12:05:57;;;;;;;31.80;18.25;;;9.70;99.90;;;;;;4997529;28;20493;-80
2022/03/15 12:08:26;;;;;;;34.45;19.23;;;9.80;99.90;;;;;;5005133;28;20046;-83
2022/03/15 12:10:58;;;;;;;31.75;19.17;;;9.80;99.90;;;;;;4994363;28;20149;-79
2022/03/15 12:13:40;;;;;;;33.50;19.67;;;9.70;99.90;;;;;;5010536;28;20053;-82
2022/03/15 12:16:41;;;;;;;37.47;20.15;;;9.80;99.90;;;;;;4993196;28;20042;-80
2022/03/15 12:21:58;;;;;;;27.60;17.38;;;10.00;99.90;;;;;;5092877;28;20068;-82
2022/03/15 12:24:36;;;;;;;29.23;17.55;;;10.10;99.90;;;;;;5092327;28;20522;-81
2022/03/15 12:27:07;;;;;;;27.83;16.17;;;10.10;99.90;;;;;;5075017;28;20398;-81
2022/03/15 12:29:33;;;;;;;29.42;15.57;;;10.20;99.90;;;;;;5091570;28;20043;-81
2022/03/15 12:32:19;;;;;;;29.60;15.82;;;10.30;99.90;;;;;;5090771;28;20538;-80
2022/03/15 12:34:49;;;;;;;29.63;16.00;;;10.50;99.90;;;;;;5092630;28;20039;-79
2022/03/15 12:37:16;;;;;;;32.50;16.73;;;10.70;99.90;;;;;;5091493;28;20462;-82
2022/03/15 12:39:53;;;;;;;28.98;15.52;;;10.80;99.90;;;;;;5075554;28;20051;-81